createdAt,value
2023-03-13T00:00:05.314Z,9.50
2023-03-13T00:02:48.205Z,10.10
2023-03-13T00:05:31.098Z,9.80
2023-03-13T00:10:57.094Z,9.40
2023-03-13T00:13:40.274Z,10.30
2023-03-13T00:16:23.743Z,9.50
2023-03-13T00:19:08.548Z,10.40
2023-03-13T00:21:51.537Z,11.10
2023-03-13T00:24:34.561Z,11.70
2023-03-13T00:27:17.396Z,10.80
2023-03-13T00:32:47.615Z,9.80
2023-03-13T00:35:30.606Z,10.60
2023-03-13T00:38:13.443Z,10.30
2023-03-13T00:43:59.904Z,10.60
2023-03-13T00:46:42.790Z,12.60
2023-03-13T00:52:08.457Z,11.60
2023-03-13T00:54:51.390Z,11.10
2023-03-13T00:57:37.499Z,11.60
2023-03-13T01:00:20.991Z,13.20
2023-03-13T01:03:03.970Z,12.60
2023-03-13T01:05:59.423Z,12.90
2023-03-13T01:08:42.396Z,15.20
2023-03-13T01:11:28.117Z,15.90
2023-03-13T01:14:14.676Z,15.40
2023-03-13T01:16:57.566Z,15.70
2023-03-13T01:19:40.713Z,15.50
2023-03-13T01:22:24.959Z,15.20
2023-03-13T01:25:09.075Z,16.20
2023-03-13T01:27:52.068Z,17.20
2023-03-13T01:30:35.000Z,17.90
2023-03-13T01:33:18.080Z,17.30
2023-03-13T01:36:02.930Z,17.20
2023-03-13T01:38:50.855Z,17.40
2023-03-13T01:41:33.861Z,18.00
2023-03-13T01:44:26.010Z,17.30
2023-03-13T01:47:09.971Z,17.60
2023-03-13T01:50:31.665Z,18.00
2023-03-13T01:53:30.152Z,16.80
2023-03-13T01:56:27.655Z,16.60
2023-03-13T01:59:16.891Z,17.10
2023-03-13T02:02:26.574Z,17.80
2023-03-13T02:05:38.568Z,17.40
2023-03-13T02:11:41.139Z,17.10
2023-03-13T02:15:15.881Z,16.40
2023-03-13T02:18:31.739Z,16.90
2023-03-13T02:21:55.649Z,17.10
2023-03-13T02:25:19.193Z,18.80
2023-03-13T02:28:59.052Z,17.60
2023-03-13T02:32:17.159Z,18.50
2023-03-13T02:35:29.009Z,17.40
2023-03-13T02:39:05.724Z,17.20
2023-03-13T02:42:29.862Z,17.90
2023-03-13T02:45:41.321Z,16.90
2023-03-13T02:49:12.854Z,17.90
2023-03-13T02:52:49.785Z,16.90
2023-03-13T02:56:00.043Z,18.10
2023-03-13T02:59:10.148Z,16.60
2023-03-13T03:02:26.582Z,18.70
2023-03-13T03:05:13.637Z,17.80
2023-03-13T03:08:17.199Z,17.20
2023-03-13T03:11:00.890Z,16.50
2023-03-13T03:14:26.876Z,17.90
2023-03-13T03:18:05.780Z,18.10
2023-03-13T03:21:49.448Z,16.30
2023-03-13T03:25:17.718Z,16.70
2023-03-13T03:28:10.391Z,16.80
2023-03-13T03:31:18.578Z,15.80
2023-03-13T03:34:27.221Z,16.30
2023-03-13T03:37:50.867Z,15.60
2023-03-13T03:41:15.843Z,15.60
2023-03-13T03:44:45.681Z,16.60
2023-03-13T03:48:05.773Z,16.00
2023-03-13T03:51:29.569Z,14.90
2023-03-13T03:55:04.364Z,15.60
2023-03-13T03:58:41.197Z,14.60
2023-03-13T04:02:02.254Z,14.10
2023-03-13T04:05:56.179Z,14.90
2023-03-13T04:09:14.256Z,13.90
2023-03-13T04:12:20.793Z,13.70
2023-03-13T04:15:29.266Z,13.00
2023-03-13T04:19:08.085Z,14.50
2023-03-13T04:23:12.144Z,13.10
2023-03-13T04:29:44.607Z,11.90
2023-03-13T04:32:59.712Z,12.70
2023-03-13T04:36:16.260Z,12.60
2023-03-13T04:39:28.000Z,12.00
2023-03-13T04:42:52.203Z,11.80
2023-03-13T04:46:18.796Z,10.70
2023-03-13T04:50:28.653Z,11.70
2023-03-13T04:54:02.925Z,11.70
2023-03-13T04:58:16.026Z,10.80
2023-03-13T05:01:42.416Z,11.60
2023-03-13T05:05:14.981Z,11.50
2023-03-13T05:08:36.320Z,11.00
2023-03-13T05:12:11.465Z,11.60
2023-03-13T05:15:43.960Z,11.10
2023-03-13T05:19:05.633Z,11.10
2023-03-13T05:22:32.492Z,9.60
2023-03-13T05:26:27.052Z,10.30
2023-03-13T05:30:09.657Z,10.50
2023-03-13T05:33:12.682Z,9.40
2023-03-13T05:36:39.159Z,10.10
2023-03-13T05:40:17.826Z,9.50
2023-03-13T05:44:13.497Z,10.00
2023-03-13T05:48:05.388Z,10.00
2023-03-13T05:51:33.232Z,8.50
2023-03-13T05:55:07.645Z,9.00
2023-03-13T05:58:01.699Z,10.70
2023-03-13T06:01:29.579Z,10.10
2023-03-13T06:05:04.428Z,11.20
2023-03-13T06:08:32.789Z,11.20
2023-03-13T06:11:28.663Z,10.50
2023-03-13T06:14:22.910Z,10.30
2023-03-13T06:17:27.773Z,9.00
2023-03-13T06:20:20.147Z,8.60
2023-03-13T06:23:05.881Z,9.70
2023-03-13T06:26:09.609Z,10.70
2023-03-13T06:28:58.335Z,9.10
2023-03-13T06:31:41.956Z,8.50
2023-03-13T06:34:30.926Z,9.50
2023-03-13T06:37:34.843Z,9.20
2023-03-13T06:40:18.510Z,8.80
2023-03-13T06:43:23.971Z,9.40
2023-03-13T06:46:08.554Z,8.50
2023-03-13T06:49:04.741Z,9.50
2023-03-13T06:52:03.818Z,8.40
2023-03-13T06:54:58.624Z,8.90
2023-03-13T07:00:53.036Z,8.70
2023-03-13T07:04:17.004Z,9.00
2023-03-13T07:07:02.871Z,8.10
2023-03-13T07:09:59.204Z,8.40
2023-03-13T07:12:45.431Z,8.50
2023-03-13T07:16:08.910Z,8.50
2023-03-13T07:19:02.310Z,8.80
2023-03-13T07:22:15.629Z,7.60
2023-03-13T07:28:01.076Z,8.30
2023-03-13T07:31:18.638Z,7.60
2023-03-13T07:34:31.986Z,7.40
2023-03-13T07:37:18.529Z,7.10
2023-03-13T07:40:10.563Z,8.60
2023-03-13T07:42:56.722Z,8.80
2023-03-13T07:45:57.498Z,7.70
2023-03-13T07:48:46.605Z,8.60
2023-03-13T07:51:43.914Z,6.70
2023-03-13T07:54:47.904Z,7.60
2023-03-13T07:57:33.698Z,7.50
2023-03-13T08:00:37.975Z,7.50
2023-03-13T08:03:30.494Z,9.10
2023-03-13T08:06:26.321Z,7.10
2023-03-13T08:09:19.098Z,7.50
2023-03-13T08:12:11.816Z,6.70
2023-03-13T08:15:25.448Z,7.60
2023-03-13T08:18:18.080Z,6.40
2023-03-13T08:21:03.333Z,6.60
2023-03-13T08:23:53.566Z,7.60
2023-03-13T08:26:41.493Z,6.80
2023-03-13T08:29:24.818Z,8.40
2023-03-13T08:32:11.338Z,7.10
2023-03-13T08:35:05.406Z,6.60
2023-03-13T08:38:11.704Z,6.60
2023-03-13T08:41:18.125Z,7.00
2023-03-13T08:44:05.326Z,7.30
2023-03-13T08:46:49.484Z,7.10
2023-03-13T08:49:32.847Z,7.10
2023-03-13T08:52:28.341Z,7.40
2023-03-13T08:55:20.587Z,6.60
2023-03-13T08:58:07.195Z,6.60
2023-03-13T09:01:14.598Z,7.40
2023-03-13T09:04:03.939Z,6.70
2023-03-13T09:06:47.893Z,7.30
2023-03-13T09:09:31.092Z,7.30
2023-03-13T09:12:29.683Z,7.30
2023-03-13T09:15:13.373Z,6.70
2023-03-13T09:17:56.707Z,6.80
2023-03-13T09:20:39.927Z,7.30
2023-03-13T09:23:23.981Z,7.90
2023-03-13T09:26:07.314Z,7.50
2023-03-13T09:28:51.744Z,6.90
2023-03-13T09:31:46.199Z,6.50
2023-03-13T09:34:29.524Z,8.00
2023-03-13T09:37:39.925Z,8.20
2023-03-13T09:40:25.825Z,7.80
2023-03-13T09:43:27.318Z,7.20
2023-03-13T09:46:34.042Z,8.40
2023-03-13T09:49:26.381Z,7.30
2023-03-13T09:52:31.853Z,8.40
2023-03-13T09:55:21.548Z,7.50
2023-03-13T09:58:16.549Z,8.20
2023-03-13T10:01:16.054Z,7.50
2023-03-13T10:04:06.877Z,7.80
2023-03-13T10:06:52.213Z,7.80
2023-03-13T10:09:45.289Z,7.90
2023-03-13T10:12:40.567Z,7.90
2023-03-13T10:15:34.751Z,7.80
2023-03-13T10:18:21.743Z,8.20
2023-03-13T10:21:20.498Z,7.40
2023-03-13T10:24:13.933Z,8.40
2023-03-13T10:26:57.713Z,7.70
2023-03-13T10:30:00.916Z,7.10
2023-03-13T10:33:08.095Z,7.30
2023-03-13T10:36:12.583Z,7.90
2023-03-13T10:39:28.771Z,8.40
2023-03-13T10:42:25.715Z,7.30
2023-03-13T10:45:20.047Z,8.10
2023-03-13T10:48:37.379Z,8.60
2023-03-13T10:51:25.803Z,9.60
2023-03-13T10:54:26.240Z,9.30
2023-03-13T10:57:39.276Z,8.70
2023-03-13T11:00:42.637Z,7.40
2023-03-13T11:03:34.519Z,9.60
2023-03-13T11:06:29.860Z,8.80
2023-03-13T11:09:19.723Z,9.70
2023-03-13T11:12:09.816Z,9.20
2023-03-13T11:15:00.705Z,8.70
2023-03-13T11:17:49.054Z,8.40
2023-03-13T11:20:45.152Z,7.40
2023-03-13T11:23:34.198Z,8.80
2023-03-13T11:26:34.922Z,9.30
2023-03-13T11:29:26.713Z,7.30
2023-03-13T11:32:58.324Z,8.20
2023-03-13T11:35:44.507Z,9.00
2023-03-13T11:38:41.452Z,9.10
2023-03-13T11:41:53.763Z,9.60
2023-03-13T11:45:15.635Z,8.90
2023-03-13T11:48:07.880Z,9.50
2023-03-13T11:51:34.431Z,9.70
2023-03-13T11:54:35.207Z,9.80
2023-03-13T11:57:42.776Z,8.30
2023-03-13T12:00:44.545Z,9.00
2023-03-13T12:03:35.968Z,9.60
2023-03-13T12:06:31.734Z,9.60
2023-03-13T12:09:34.764Z,9.10
2023-03-13T12:15:53.083Z,8.50
2023-03-13T12:18:46.038Z,9.20
2023-03-13T12:21:35.944Z,8.50
2023-03-13T12:24:44.768Z,8.70
2023-03-13T12:27:34.473Z,8.20
2023-03-13T12:30:41.449Z,7.50
2023-03-13T12:33:38.083Z,7.10
2023-03-13T12:36:34.404Z,6.80
2023-03-13T12:39:52.228Z,7.20
2023-03-13T12:42:52.508Z,7.30
2023-03-13T12:45:45.397Z,7.60
2023-03-13T12:48:28.895Z,6.90
2023-03-13T12:51:18.613Z,6.80
2023-03-13T12:54:13.246Z,6.30
2023-03-13T12:57:19.174Z,6.90
2023-03-13T13:00:06.962Z,6.30
2023-03-13T13:03:31.921Z,6.70
2023-03-13T13:06:17.931Z,6.70
2023-03-13T13:09:14.660Z,7.30
2023-03-13T13:12:07.944Z,7.40
2023-03-13T13:14:51.175Z,7.70
2023-03-13T13:17:43.084Z,8.30
2023-03-13T13:20:26.136Z,7.90
2023-03-13T13:23:25.340Z,8.20
2023-03-13T13:26:37.450Z,9.40
2023-03-13T13:29:37.362Z,8.00
2023-03-13T13:32:30.103Z,8.30
2023-03-13T13:35:13.074Z,8.60
2023-03-13T13:38:18.614Z,8.20
2023-03-13T13:41:05.416Z,8.50
2023-03-13T13:44:09.918Z,9.10
2023-03-13T13:46:55.195Z,9.20
2023-03-13T13:49:53.140Z,9.50
2023-03-13T13:52:38.455Z,8.40
2023-03-13T13:55:42.057Z,8.10
2023-03-13T13:58:30.292Z,8.50
2023-03-13T14:01:16.894Z,8.40
2023-03-13T14:04:12.298Z,9.60
2023-03-13T14:07:02.065Z,10.00
2023-03-13T14:10:12.727Z,9.50
2023-03-13T14:13:01.073Z,8.10
2023-03-13T14:15:49.940Z,9.90
2023-03-13T14:18:35.963Z,8.70
2023-03-13T14:21:26.522Z,9.60
2023-03-13T14:24:16.588Z,9.20
2023-03-13T14:27:00.904Z,9.50
2023-03-13T14:30:04.086Z,9.60
2023-03-13T14:32:48.167Z,9.20
2023-03-13T14:35:31.273Z,10.70
2023-03-13T14:38:23.316Z,9.00
2023-03-13T14:41:06.612Z,9.40
2023-03-13T14:43:49.697Z,9.90
2023-03-13T14:46:41.221Z,8.90
2023-03-13T14:49:29.783Z,8.70
2023-03-13T14:52:22.723Z,9.10
2023-03-13T14:55:26.896Z,9.20
2023-03-13T14:58:28.869Z,9.60
2023-03-13T15:01:30.754Z,8.60
2023-03-13T15:04:13.899Z,9.70
2023-03-13T15:07:03.996Z,9.00
2023-03-13T15:09:47.800Z,8.40
2023-03-13T15:12:32.184Z,9.40
2023-03-13T15:15:15.372Z,10.10
2023-03-13T15:17:58.494Z,9.40
2023-03-13T15:20:42.042Z,8.80
2023-03-13T15:23:35.758Z,8.40
2023-03-13T15:26:26.508Z,8.70
2023-03-13T15:29:11.236Z,8.50
2023-03-13T15:31:54.368Z,8.70
2023-03-13T15:34:37.373Z,8.80
2023-03-13T15:37:20.713Z,9.50
2023-03-13T15:40:14.568Z,9.60
2023-03-13T15:43:06.750Z,9.50
2023-03-13T15:46:05.765Z,9.60
2023-03-13T15:48:49.041Z,9.10
2023-03-13T15:51:33.101Z,8.80
2023-03-13T15:54:16.394Z,8.70
2023-03-13T15:56:59.713Z,8.10
2023-03-13T15:59:44.382Z,7.30
2023-03-13T16:02:27.582Z,7.20
2023-03-13T16:05:11.026Z,6.60
2023-03-13T16:07:54.189Z,6.50
2023-03-13T16:10:37.356Z,6.10
2023-03-13T16:13:21.405Z,5.50
2023-03-13T16:16:21.580Z,5.50
2023-03-13T16:19:07.525Z,4.70
2023-03-13T16:21:52.709Z,5.40
2023-03-13T16:24:35.882Z,5.40
2023-03-13T16:27:22.817Z,4.70
2023-03-13T16:30:14.405Z,5.60
2023-03-13T16:32:58.389Z,6.10
2023-03-13T16:35:41.763Z,6.70
2023-03-13T16:38:27.851Z,7.20
2023-03-13T16:41:18.788Z,6.90
2023-03-13T16:44:02.866Z,6.60
2023-03-13T16:46:59.103Z,6.60
2023-03-13T16:49:48.037Z,6.60
2023-03-13T16:52:31.021Z,5.50
2023-03-13T16:55:14.237Z,6.20
2023-03-13T16:58:00.396Z,5.60
2023-03-13T17:00:50.828Z,5.50
2023-03-13T17:03:43.448Z,5.90
2023-03-13T17:06:33.550Z,5.80
2023-03-13T17:09:19.578Z,5.60
2023-03-13T17:12:02.703Z,6.30
2023-03-13T17:14:46.299Z,6.30
2023-03-13T17:17:34.682Z,6.90
2023-03-13T17:20:24.200Z,6.90
2023-03-13T17:23:07.494Z,6.30
2023-03-13T17:25:50.669Z,5.90
2023-03-13T17:28:33.602Z,6.60
2023-03-13T17:31:17.354Z,6.10
2023-03-13T17:34:02.219Z,6.20
2023-03-13T17:36:49.021Z,5.70
2023-03-13T17:39:32.321Z,5.60
2023-03-13T17:42:15.389Z,5.60
2023-03-13T17:44:58.581Z,5.40
2023-03-13T17:47:44.170Z,5.10
2023-03-13T17:50:27.986Z,5.10
2023-03-13T17:53:11.169Z,5.50
2023-03-13T17:56:06.517Z,5.60
2023-03-13T17:58:51.340Z,5.10
2023-03-13T18:01:35.418Z,5.10
2023-03-13T18:04:18.694Z,5.60
2023-03-13T18:07:01.894Z,4.90
2023-03-13T18:09:47.647Z,5.70
2023-03-13T18:12:30.803Z,5.80
2023-03-13T18:15:14.108Z,5.20
2023-03-13T18:18:17.667Z,5.90
2023-03-13T18:21:10.057Z,6.30
2023-03-13T18:23:57.139Z,5.50
2023-03-13T18:26:42.108Z,6.80
2023-03-13T18:29:47.455Z,6.70
2023-03-13T18:32:31.020Z,6.40
2023-03-13T18:35:15.044Z,5.70
2023-03-13T18:37:58.681Z,6.30
2023-03-13T18:40:41.941Z,5.80
2023-03-13T18:43:25.286Z,6.40
2023-03-13T18:46:34.528Z,6.40
2023-03-13T18:49:22.566Z,6.30
2023-03-13T18:52:06.092Z,6.80
2023-03-13T18:54:49.386Z,8.20
2023-03-13T18:57:33.896Z,5.70
2023-03-13T19:00:21.551Z,7.00
2023-03-13T19:03:05.534Z,7.20
2023-03-13T19:05:48.980Z,6.30
2023-03-13T19:08:34.642Z,7.60
2023-03-13T19:11:23.082Z,6.00
2023-03-13T19:14:07.220Z,6.10
2023-03-13T19:16:53.654Z,5.80
2023-03-13T19:19:41.901Z,5.40
2023-03-13T19:22:26.306Z,6.00
2023-03-13T19:25:11.157Z,7.10
2023-03-13T19:27:55.772Z,6.30
2023-03-13T19:30:38.927Z,6.40
2023-03-13T19:33:22.622Z,6.30
2023-03-13T19:36:14.289Z,7.60
2023-03-13T19:38:59.257Z,6.30
2023-03-13T19:41:43.807Z,7.00
2023-03-13T19:44:29.307Z,6.30
2023-03-13T19:47:15.797Z,6.60
2023-03-13T19:49:59.076Z,7.30
2023-03-13T19:52:42.424Z,6.50
2023-03-13T19:55:25.639Z,5.90
2023-03-13T19:58:08.982Z,6.70
2023-03-13T20:00:52.794Z,6.10
2023-03-13T20:03:36.020Z,6.10
2023-03-13T20:06:22.336Z,6.30
2023-03-13T20:09:09.377Z,5.50
2023-03-13T20:11:52.616Z,5.80
2023-03-13T20:14:36.325Z,6.10
2023-03-13T20:17:19.762Z,6.70
2023-03-13T20:20:03.888Z,5.90
2023-03-13T20:22:48.561Z,6.00
2023-03-13T20:25:32.496Z,5.80
2023-03-13T20:28:16.673Z,5.60
2023-03-13T20:31:01.174Z,5.80
2023-03-13T20:33:45.651Z,5.60
2023-03-13T20:36:29.153Z,5.70
2023-03-13T20:39:12.607Z,5.90
2023-03-13T20:41:56.926Z,5.30
2023-03-13T20:44:40.971Z,5.30
2023-03-13T20:47:24.294Z,5.00
2023-03-13T20:50:08.141Z,4.80
2023-03-13T20:52:53.375Z,4.70
2023-03-13T20:55:41.926Z,5.20
2023-03-13T20:58:26.472Z,5.00
2023-03-13T21:01:11.643Z,4.70
2023-03-13T21:03:54.893Z,5.20
2023-03-13T21:06:38.082Z,5.10
2023-03-13T21:09:21.393Z,5.10
2023-03-13T21:12:06.266Z,4.70
2023-03-13T21:14:53.605Z,4.80
2023-03-13T21:17:37.715Z,4.80
2023-03-13T21:20:20.828Z,4.90
2023-03-13T21:23:04.559Z,4.20
2023-03-13T21:25:55.312Z,4.70
2023-03-13T21:28:39.940Z,4.80
2023-03-13T21:31:24.472Z,5.20
2023-03-13T21:34:08.503Z,5.40
2023-03-13T21:36:51.929Z,4.80
2023-03-13T21:39:35.348Z,5.20
2023-03-13T21:42:19.162Z,4.50
2023-03-13T21:45:05.145Z,5.80
2023-03-13T21:47:48.401Z,4.20
2023-03-13T21:50:33.326Z,4.40
2023-03-13T21:53:17.266Z,4.20
2023-03-13T21:56:00.767Z,3.90
2023-03-13T21:58:47.631Z,4.10
2023-03-13T22:01:31.677Z,4.30
2023-03-13T22:04:15.124Z,4.30
2023-03-13T22:06:58.519Z,4.80
2023-03-13T22:09:42.057Z,4.40
2023-03-13T22:12:26.504Z,3.90
2023-03-13T22:15:10.662Z,5.60
2023-03-13T22:17:54.373Z,4.20
2023-03-13T22:20:37.824Z,4.20
2023-03-13T22:23:21.509Z,4.30
2023-03-13T22:26:06.095Z,4.20
2023-03-13T22:28:49.209Z,4.00
2023-03-13T22:31:33.124Z,3.60
2023-03-13T22:34:16.565Z,3.70
2023-03-13T22:37:01.033Z,3.60
2023-03-13T22:39:44.980Z,4.10
2023-03-13T22:42:28.320Z,4.30
2023-03-13T22:45:12.678Z,4.30
2023-03-13T22:47:56.025Z,4.80
2023-03-13T22:50:39.203Z,4.00
2023-03-13T22:53:23.007Z,4.40
2023-03-13T22:56:07.157Z,4.00
2023-03-13T22:58:50.417Z,4.30
2023-03-13T23:01:33.721Z,4.00
2023-03-13T23:04:16.998Z,3.70
2023-03-13T23:07:01.003Z,3.90
2023-03-13T23:09:44.583Z,3.60
2023-03-13T23:12:31.208Z,3.70
2023-03-13T23:15:14.814Z,3.30
2023-03-13T23:17:59.259Z,3.60
2023-03-13T23:20:42.786Z,3.70
2023-03-13T23:23:26.110Z,4.20
2023-03-13T23:26:13.768Z,4.00
2023-03-13T23:28:57.454Z,3.90
2023-03-13T23:31:41.491Z,3.50
2023-03-13T23:34:24.909Z,3.80
2023-03-13T23:37:09.180Z,4.00
2023-03-13T23:39:55.873Z,3.60
2023-03-13T23:42:40.133Z,4.00
2023-03-13T23:45:25.627Z,4.20
2023-03-13T23:48:09.100Z,4.40
2023-03-13T23:50:52.306Z,4.30
2023-03-13T23:53:40.512Z,4.40
2023-03-13T23:56:39.538Z,4.10
2023-03-13T23:59:23.644Z,4.50
